sensor_id;sensor_type;location;lat;lon;timestamp;pressure;altitude;pressure_sealevel;temperature;humidity
7888;BME280;3989;48.810;9.208;2023-03-18T00:00:07;98347.28;;;8.64;nan
7888;BME280;3989;48.810;9.208;2023-03-18T00:02:36;98346.16;;;8.59;nan
7888;BME280;3989;48.810;9.208;2023-03-18T00:05:03;98299.66;;;8.24;nan
7888;BME280;3989;48.810;9.208;2023-03-18T00:07:30;98348.84;;;8.51;nan
7888;BME280;3989;48.810;9.208;2023-03-18T00:09:56;98350.22;;;8.47;nan
7888;BME280;3989;48.810;9.208;2023-03-18T00:12:23;98339.91;;;8.43;nan
7888;BME280;3989;48.810;9.208;2023-03-18T00:14:50;98351.59;;;8.42;nan
7888;BME280;3989;48.810;9.208;2023-03-18T00:17:18;98340.28;;;8.40;nan
7888;BME280;3989;48.810;9.208;2023-03-18T00:19:45;98343.78;;;8.41;nan
7888;BME280;3989;48.810;9.208;2023-03-18T00:22:12;98343.78;;;8.41;nan
7888;BME280;3989;48.810;9.208;2023-03-18T00:24:39;98311.28;;;8.23;nan
7888;BME280;3989;48.810;9.208;2023-03-18T00:27:05;98367.22;;;8.37;nan
7888;BME280;3989;48.810;9.208;2023-03-18T00:29:33;98351.63;;;8.34;nan
7888;BME280;3989;48.810;9.208;2023-03-18T00:32:00;98345.19;;;8.29;nan
7888;BME280;3989;48.810;9.208;2023-03-18T00:34:28;98355.28;;;8.25;nan
7888;BME280;3989;48.810;9.208;2023-03-18T00:36:54;98346.56;;;8.09;nan
7888;BME280;3989;48.810;9.208;2023-03-18T00:39:22;98368.09;;;8.22;nan
7888;BME280;3989;48.810;9.208;2023-03-18T00:41:50;98334.38;;;7.91;nan
7888;BME280;3989;48.810;9.208;2023-03-18T00:44:19;98375.44;;;8.20;nan
7888;BME280;3989;48.810;9.208;2023-03-18T00:46:45;98374.09;;;8.24;nan
7888;BME280;3989;48.810;9.208;2023-03-18T00:49:12;98387.38;;;8.24;nan
7888;BME280;3989;48.810;9.208;2023-03-18T00:51:40;98332.72;;;7.90;nan
7888;BME280;3989;48.810;9.208;2023-03-18T00:54:09;98344.66;;;7.95;nan
7888;BME280;3989;48.810;9.208;2023-03-18T00:56:36;98368.03;;;8.07;nan
7888;BME280;3989;48.810;9.208;2023-03-18T00:59:03;98379.56;;;8.22;nan
7888;BME280;3989;48.810;9.208;2023-03-18T01:01:31;98379.28;;;8.17;nan
7888;BME280;3989;48.810;9.208;2023-03-18T01:03:58;98383.06;;;8.23;nan
7888;BME280;3989;48.810;9.208;2023-03-18T01:06:28;98360.88;;;8.08;nan
7888;BME280;3989;48.810;9.208;2023-03-18T01:08:57;98384.72;;;8.24;nan
7888;BME280;3989;48.810;9.208;2023-03-18T01:11:26;98383.69;;;8.25;nan
7888;BME280;3989;48.810;9.208;2023-03-18T01:13:52;98383.69;;;8.25;nan
7888;BME280;3989;48.810;9.208;2023-03-18T01:16:20;98347.47;;;8.01;nan
7888;BME280;3989;48.810;9.208;2023-03-18T01:18:48;98365.84;;;8.11;nan
7888;BME280;3989;48.810;9.208;2023-03-18T01:21:14;98386.53;;;8.31;nan
7888;BME280;3989;48.810;9.208;2023-03-18T01:23:41;98376.38;;;8.35;nan
7888;BME280;3989;48.810;9.208;2023-03-18T01:26:09;98386.84;;;8.36;nan
7888;BME280;3989;48.810;9.208;2023-03-18T01:28:36;98395.97;;;8.34;nan
7888;BME280;3989;48.810;9.208;2023-03-18T01:31:02;98165.16;;;6.92;nan
7888;BME280;3989;48.810;9.208;2023-03-18T01:33:29;98395.97;;;8.34;nan
7888;BME280;3989;48.810;9.208;2023-03-18T01:35:58;98298.66;;;7.94;nan
7888;BME280;3989;48.810;9.208;2023-03-18T01:38:27;98373.50;;;8.44;nan
7888;BME280;3989;48.810;9.208;2023-03-18T01:40:55;98342.81;;;8.34;nan
7888;BME280;3989;48.810;9.208;2023-03-18T01:43:26;98326.56;;;8.29;nan
7888;BME280;3989;48.810;9.208;2023-03-18T01:45:55;98269.03;;;8.05;nan
7888;BME280;3989;48.810;9.208;2023-03-18T01:48:27;98374.75;;;8.79;nan
7888;BME280;3989;48.810;9.208;2023-03-18T01:50:56;98366.72;;;8.87;nan
7888;BME280;3989;48.810;9.208;2023-03-18T01:53:27;98370.69;;;8.91;nan
7888;BME280;3989;48.810;9.208;2023-03-18T01:55:54;98369.50;;;8.94;nan
7888;BME280;3989;48.810;9.208;2023-03-18T01:58:28;98341.09;;;8.72;nan
7888;BME280;3989;48.810;9.208;2023-03-18T02:01:01;98366.38;;;8.90;nan
7888;BME280;3989;48.810;9.208;2023-03-18T02:03:29;98361.06;;;8.90;nan
7888;BME280;3989;48.810;9.208;2023-03-18T02:05:56;98314.06;;;8.60;nan
7888;BME280;3989;48.810;9.208;2023-03-18T02:08:22;98368.69;;;8.93;nan
7888;BME280;3989;48.810;9.208;2023-03-18T02:10:49;98315.13;;;8.51;nan
7888;BME280;3989;48.810;9.208;2023-03-18T02:13:16;98373.47;;;8.75;nan
7888;BME280;3989;48.810;9.208;2023-03-18T02:15:47;98367.69;;;8.72;nan
7888;BME280;3989;48.810;9.208;2023-03-18T02:18:18;98348.16;;;8.57;nan
7888;BME280;3989;48.810;9.208;2023-03-18T02:20:55;98364.59;;;8.60;nan
7888;BME280;3989;48.810;9.208;2023-03-18T02:23:26;98362.94;;;8.59;nan
7888;BME280;3989;48.810;9.208;2023-03-18T02:26:02;98367.59;;;8.57;nan
7888;BME280;3989;48.810;9.208;2023-03-18T02:28:32;98374.25;;;8.53;nan
7888;BME280;3989;48.810;9.208;2023-03-18T02:31:04;98374.63;;;8.50;nan
7888;BME280;3989;48.810;9.208;2023-03-18T02:33:36;98334.22;;;8.24;nan
7888;BME280;3989;48.810;9.208;2023-03-18T02:36:08;98283.22;;;7.89;nan
7888;BME280;3989;48.810;9.208;2023-03-18T02:38:40;98366.44;;;8.29;nan
7888;BME280;3989;48.810;9.208;2023-03-18T02:41:12;98374.59;;;8.19;nan
7888;BME280;3989;48.810;9.208;2023-03-18T02:43:40;98376.00;;;8.07;nan
7888;BME280;3989;48.810;9.208;2023-03-18T02:46:16;98364.91;;;7.96;nan
7888;BME280;3989;48.810;9.208;2023-03-18T02:48:46;98389.97;;;8.01;nan
7888;BME280;3989;48.810;9.208;2023-03-18T02:51:15;98340.75;;;7.74;nan
7888;BME280;3989;48.810;9.208;2023-03-18T02:53:42;98394.25;;;8.02;nan
7888;BME280;3989;48.810;9.208;2023-03-18T02:56:09;98363.41;;;7.93;nan
7888;BME280;3989;48.810;9.208;2023-03-18T02:58:36;98385.78;;;8.07;nan
7888;BME280;3989;48.810;9.208;2023-03-18T03:01:06;98340.06;;;7.80;nan
7888;BME280;3989;48.810;9.208;2023-03-18T03:03:34;98364.75;;;7.97;nan
7888;BME280;3989;48.810;9.208;2023-03-18T03:06:01;98382.78;;;8.10;nan
7888;BME280;3989;48.810;9.208;2023-03-18T03:08:28;98388.25;;;8.08;nan
7888;BME280;3989;48.810;9.208;2023-03-18T03:10:55;98389.28;;;8.07;nan
7888;BME280;3989;48.810;9.208;2023-03-18T03:13:23;98385.47;;;8.02;nan
7888;BME280;3989;48.810;9.208;2023-03-18T03:15:50;98394.25;;;8.10;nan
7888;BME280;3989;48.810;9.208;2023-03-18T03:18:18;98404.88;;;8.10;nan
7888;BME280;3989;48.810;9.208;2023-03-18T03:20:45;98399.06;;;8.07;nan
7888;BME280;3989;48.810;9.208;2023-03-18T03:23:13;98403.91;;;8.03;nan
7888;BME280;3989;48.810;9.208;2023-03-18T03:25:41;98398.31;;;7.90;nan
7888;BME280;3989;48.810;9.208;2023-03-18T03:28:10;98381.91;;;7.70;nan
7888;BME280;3989;48.810;9.208;2023-03-18T03:30:37;98339.84;;;7.43;nan
7888;BME280;3989;48.810;9.208;2023-03-18T03:33:04;98389.06;;;7.70;nan
7888;BME280;3989;48.810;9.208;2023-03-18T03:35:32;98418.75;;;7.81;nan
7888;BME280;3989;48.810;9.208;2023-03-18T03:37:59;98415.97;;;7.75;nan
7888;BME280;3989;48.810;9.208;2023-03-18T03:40:26;98406.31;;;7.66;nan
7888;BME280;3989;48.810;9.208;2023-03-18T03:42:53;98420.78;;;7.71;nan
7888;BME280;3989;48.810;9.208;2023-03-18T03:45:19;98419.94;;;7.71;nan
7888;BME280;3989;48.810;9.208;2023-03-18T03:47:46;98337.06;;;7.12;nan
7888;BME280;3989;48.810;9.208;2023-03-18T03:50:14;98433.91;;;7.57;nan
7888;BME280;3989;48.810;9.208;2023-03-18T03:52:43;98404.06;;;7.38;nan
7888;BME280;3989;48.810;9.208;2023-03-18T03:55:14;98419.16;;;7.38;nan
7888;BME280;3989;48.810;9.208;2023-03-18T03:57:41;98277.56;;;6.34;nan
7888;BME280;3989;48.810;9.208;2023-03-18T04:00:10;98391.13;;;6.95;nan
7888;BME280;3989;48.810;9.208;2023-03-18T04:02:38;98422.63;;;7.14;nan
7888;BME280;3989;48.810;9.208;2023-03-18T04:05:06;98424.13;;;7.09;nan
7888;BME280;3989;48.810;9.208;2023-03-18T04:07:33;98423.31;;;7.00;nan
7888;BME280;3989;48.810;9.208;2023-03-18T04:10:00;98422.28;;;6.85;nan
7888;BME280;3989;48.810;9.208;2023-03-18T04:12:27;98355.63;;;6.40;nan
7888;BME280;3989;48.810;9.208;2023-03-18T04:14:55;98397.41;;;6.62;nan
7888;BME280;3989;48.810;9.208;2023-03-18T04:17:21;98385.75;;;6.47;nan
7888;BME280;3989;48.810;9.208;2023-03-18T04:19:48;98435.88;;;6.74;nan
7888;BME280;3989;48.810;9.208;2023-03-18T04:22:15;98433.72;;;6.77;nan
7888;BME280;3989;48.810;9.208;2023-03-18T04:24:42;98420.44;;;6.61;nan
7888;BME280;3989;48.810;9.208;2023-03-18T04:27:12;98373.16;;;6.32;nan
7888;BME280;3989;48.810;9.208;2023-03-18T04:29:38;98428.41;;;6.69;nan
7888;BME280;3989;48.810;9.208;2023-03-18T04:32:05;98436.16;;;6.63;nan
7888;BME280;3989;48.810;9.208;2023-03-18T04:34:32;98433.34;;;6.56;nan
7888;BME280;3989;48.810;9.208;2023-03-18T04:36:58;98439.13;;;6.52;nan
7888;BME280;3989;48.810;9.208;2023-03-18T04:39:25;98413.75;;;6.33;nan
7888;BME280;3989;48.810;9.208;2023-03-18T04:41:52;98395.13;;;6.17;nan
7888;BME280;3989;48.810;9.208;2023-03-18T04:44:20;98422.44;;;6.17;nan
7888;BME280;3989;48.810;9.208;2023-03-18T04:46:46;98444.34;;;6.27;nan
7888;BME280;3989;48.810;9.208;2023-03-18T04:49:13;98406.34;;;6.03;nan
7888;BME280;3989;48.810;9.208;2023-03-18T04:51:40;98449.44;;;6.21;nan
7888;BME280;3989;48.810;9.208;2023-03-18T04:54:06;98398.97;;;5.89;nan
7888;BME280;3989;48.810;9.208;2023-03-18T04:56:33;98441.44;;;6.05;nan
7888;BME280;3989;48.810;9.208;2023-03-18T04:59:00;98356.91;;;5.52;nan
7888;BME280;3989;48.810;9.208;2023-03-18T05:01:27;98437.06;;;5.88;nan
7888;BME280;3989;48.810;9.208;2023-03-18T05:03:54;98348.03;;;5.35;nan
7888;BME280;3989;48.810;9.208;2023-03-18T05:06:23;98433.84;;;5.84;nan
7888;BME280;3989;48.810;9.208;2023-03-18T05:08:52;98442.19;;;5.89;nan
7888;BME280;3989;48.810;9.208;2023-03-18T05:11:19;98409.56;;;5.63;nan
7888;BME280;3989;48.810;9.208;2023-03-18T05:13:46;98441.59;;;5.77;nan
7888;BME280;3989;48.810;9.208;2023-03-18T05:16:12;98442.88;;;5.73;nan
7888;BME280;3989;48.810;9.208;2023-03-18T05:18:40;98445.53;;;5.73;nan
7888;BME280;3989;48.810;9.208;2023-03-18T05:21:07;98432.97;;;5.75;nan
7888;BME280;3989;48.810;9.208;2023-03-18T05:23:34;98444.88;;;5.71;nan
7888;BME280;3989;48.810;9.208;2023-03-18T05:26:02;98448.75;;;5.59;nan
7888;BME280;3989;48.810;9.208;2023-03-18T05:28:30;98450.97;;;5.46;nan
7888;BME280;3989;48.810;9.208;2023-03-18T05:30:57;98441.59;;;5.26;nan
7888;BME280;3989;48.810;9.208;2023-03-18T05:33:23;98458.97;;;5.28;nan
7888;BME280;3989;48.810;9.208;2023-03-18T05:35:51;98462.44;;;5.29;nan
7888;BME280;3989;48.810;9.208;2023-03-18T05:38:18;98454.31;;;5.30;nan
7888;BME280;3989;48.810;9.208;2023-03-18T05:40:44;98462.25;;;5.30;nan
7888;BME280;3989;48.810;9.208;2023-03-18T05:43:11;98462.97;;;5.33;nan
7888;BME280;3989;48.810;9.208;2023-03-18T05:45:38;98443.16;;;5.19;nan
7888;BME280;3989;48.810;9.208;2023-03-18T05:48:05;98457.97;;;5.29;nan
7888;BME280;3989;48.810;9.208;2023-03-18T05:50:33;98404.94;;;4.96;nan
7888;BME280;3989;48.810;9.208;2023-03-18T05:53:02;98442.78;;;5.14;nan
7888;BME280;3989;48.810;9.208;2023-03-18T05:55:30;98407.78;;;4.94;nan
7888;BME280;3989;48.810;9.208;2023-03-18T05:57:57;98461.75;;;5.27;nan
7888;BME280;3989;48.810;9.208;2023-03-18T06:00:25;98455.78;;;5.25;nan
7888;BME280;3989;48.810;9.208;2023-03-18T06:02:53;98459.41;;;5.24;nan
7888;BME280;3989;48.810;9.208;2023-03-18T06:05:20;98435.75;;;5.05;nan
7888;BME280;3989;48.810;9.208;2023-03-18T06:07:47;98459.41;;;5.24;nan
7888;BME280;3989;48.810;9.208;2023-03-18T06:10:15;98441.44;;;5.10;nan
7888;BME280;3989;48.810;9.208;2023-03-18T06:12:42;98467.88;;;5.27;nan
7888;BME280;3989;48.810;9.208;2023-03-18T06:15:11;98190.09;;;3.63;nan
7888;BME280;3989;48.810;9.208;2023-03-18T06:17:38;98440.00;;;5.33;nan
7888;BME280;3989;48.810;9.208;2023-03-18T06:20:06;98473.81;;;5.47;nan
7888;BME280;3989;48.810;9.208;2023-03-18T06:22:35;98446.91;;;5.34;nan
7888;BME280;3989;48.810;9.208;2023-03-18T06:25:02;98464.41;;;5.53;nan
7888;BME280;3989;48.810;9.208;2023-03-18T06:27:30;98421.25;;;5.26;nan
7888;BME280;3989;48.810;9.208;2023-03-18T06:29:57;98481.34;;;5.60;nan
7888;BME280;3989;48.810;9.208;2023-03-18T06:32:27;98362.59;;;4.88;nan
7888;BME280;3989;48.810;9.208;2023-03-18T06:34:54;98426.22;;;5.29;nan
7888;BME280;3989;48.810;9.208;2023-03-18T06:37:20;98469.03;;;5.68;nan
7888;BME280;3989;48.810;9.208;2023-03-18T06:39:47;98474.78;;;5.90;nan
7888;BME280;3989;48.810;9.208;2023-03-18T06:42:14;98380.66;;;5.44;nan
7888;BME280;3989;48.810;9.208;2023-03-18T06:44:42;98463.66;;;6.12;nan
7888;BME280;3989;48.810;9.208;2023-03-18T06:47:15;98463.41;;;6.31;nan
7888;BME280;3989;48.810;9.208;2023-03-18T06:49:41;98484.84;;;6.46;nan
7888;BME280;3989;48.810;9.208;2023-03-18T06:52:08;98480.25;;;6.56;nan
7888;BME280;3989;48.810;9.208;2023-03-18T06:54:37;98479.59;;;6.62;nan
7888;BME280;3989;48.810;9.208;2023-03-18T06:57:04;98474.63;;;6.67;nan
7888;BME280;3989;48.810;9.208;2023-03-18T06:59:31;98446.91;;;6.53;nan
7888;BME280;3989;48.810;9.208;2023-03-18T07:01:59;98394.50;;;6.31;nan
7888;BME280;3989;48.810;9.208;2023-03-18T07:04:26;98500.22;;;6.92;nan
7888;BME280;3989;48.810;9.208;2023-03-18T07:06:52;98424.56;;;6.64;nan
7888;BME280;3989;48.810;9.208;2023-03-18T07:09:20;98506.41;;;7.25;nan
7888;BME280;3989;48.810;9.208;2023-03-18T07:11:47;98329.44;;;6.53;nan
7888;BME280;3989;48.810;9.208;2023-03-18T07:14:14;98484.53;;;7.71;nan
7888;BME280;3989;48.810;9.208;2023-03-18T07:16:41;98365.09;;;7.23;nan
7888;BME280;3989;48.810;9.208;2023-03-18T07:19:09;98428.03;;;7.85;nan
7888;BME280;3989;48.810;9.208;2023-03-18T07:21:35;98483.38;;;8.37;nan
7888;BME280;3989;48.810;9.208;2023-03-18T07:24:04;98479.84;;;8.53;nan
7888;BME280;3989;48.810;9.208;2023-03-18T07:26:31;98354.25;;;7.96;nan
7888;BME280;3989;48.810;9.208;2023-03-18T07:28:58;98428.06;;;8.63;nan
7888;BME280;3989;48.810;9.208;2023-03-18T07:31:24;98490.13;;;9.17;nan
7888;BME280;3989;48.810;9.208;2023-03-18T07:33:51;98485.97;;;9.37;nan
7888;BME280;3989;48.810;9.208;2023-03-18T07:36:20;98445.44;;;9.27;nan
7888;BME280;3989;48.810;9.208;2023-03-18T07:38:47;98490.66;;;9.73;nan
7888;BME280;3989;48.810;9.208;2023-03-18T07:41:13;98476.16;;;9.75;nan
7888;BME280;3989;48.810;9.208;2023-03-18T07:43:40;98429.16;;;9.60;nan
7888;BME280;3989;48.810;9.208;2023-03-18T07:46:07;98484.09;;;10.13;nan
7888;BME280;3989;48.810;9.208;2023-03-18T07:48:34;98423.50;;;9.92;nan
7888;BME280;3989;48.810;9.208;2023-03-18T07:51:01;98401.63;;;9.96;nan
7888;BME280;3989;48.810;9.208;2023-03-18T07:53:29;98357.91;;;9.91;nan
7888;BME280;3989;48.810;9.208;2023-03-18T07:55:55;98467.91;;;10.73;nan
7888;BME280;3989;48.810;9.208;2023-03-18T07:58:22;98406.09;;;10.54;nan
7888;BME280;3989;48.810;9.208;2023-03-18T08:00:48;98341.41;;;10.31;nan
7888;BME280;3989;48.810;9.208;2023-03-18T08:03:15;98445.28;;;11.04;nan
7888;BME280;3989;48.810;9.208;2023-03-18T08:05:42;98470.13;;;11.47;nan
7888;BME280;3989;48.810;9.208;2023-03-18T08:08:10;98506.47;;;11.84;nan
7888;BME280;3989;48.810;9.208;2023-03-18T08:10:38;98471.72;;;11.84;nan
7888;BME280;3989;48.810;9.208;2023-03-18T08:13:04;98479.44;;;12.00;nan
7888;BME280;3989;48.810;9.208;2023-03-18T08:15:31;98455.34;;;11.94;nan
7888;BME280;3989;48.810;9.208;2023-03-18T08:17:58;98514.53;;;12.46;nan
7888;BME280;3989;48.810;9.208;2023-03-18T08:20:25;98427.84;;;12.06;nan
7888;BME280;3989;48.810;9.208;2023-03-18T08:22:51;98424.41;;;12.19;nan
7888;BME280;3989;48.810;9.208;2023-03-18T08:25:18;98506.47;;;12.81;nan
7888;BME280;3989;48.810;9.208;2023-03-18T08:27:49;98497.22;;;12.90;nan
7888;BME280;3989;48.810;9.208;2023-03-18T08:30:17;98498.50;;;13.00;nan
7888;BME280;3989;48.810;9.208;2023-03-18T08:32:43;98508.88;;;13.17;nan
7888;BME280;3989;48.810;9.208;2023-03-18T08:35:11;98498.00;;;13.25;nan
7888;BME280;3989;48.810;9.208;2023-03-18T08:37:37;98498.84;;;13.38;nan
7888;BME280;3989;48.810;9.208;2023-03-18T08:40:05;98502.34;;;13.45;nan
7888;BME280;3989;48.810;9.208;2023-03-18T08:42:34;98365.53;;;12.73;nan
7888;BME280;3989;48.810;9.208;2023-03-18T08:45:02;98452.06;;;13.34;nan
7888;BME280;3989;48.810;9.208;2023-03-18T08:47:29;98485.88;;;13.61;nan
7888;BME280;3989;48.810;9.208;2023-03-18T08:49:55;98428.97;;;13.40;nan
7888;BME280;3989;48.810;9.208;2023-03-18T08:52:22;98493.34;;;13.92;nan
7888;BME280;3989;48.810;9.208;2023-03-18T08:54:49;98490.66;;;14.05;nan
7888;BME280;3989;48.810;9.208;2023-03-18T08:57:17;98479.50;;;14.08;nan
7888;BME280;3989;48.810;9.208;2023-03-18T08:59:44;98464.00;;;14.10;nan
7888;BME280;3989;48.810;9.208;2023-03-18T09:02:13;98473.06;;;14.36;nan
7888;BME280;3989;48.810;9.208;2023-03-18T09:04:41;98477.78;;;14.53;nan
7888;BME280;3989;48.810;9.208;2023-03-18T09:07:07;98480.84;;;14.63;nan
7888;BME280;3989;48.810;9.208;2023-03-18T09:09:34;98470.91;;;14.64;nan
7888;BME280;3989;48.810;9.208;2023-03-18T09:12:01;98482.25;;;14.73;nan
7888;BME280;3989;48.810;9.208;2023-03-18T09:14:28;98455.59;;;14.71;nan
7888;BME280;3989;48.810;9.208;2023-03-18T09:16:55;98480.53;;;14.91;nan
7888;BME280;3989;48.810;9.208;2023-03-18T09:19:23;98485.16;;;15.09;nan
7888;BME280;3989;48.810;9.208;2023-03-18T09:21:49;98477.31;;;15.14;nan
7888;BME280;3989;48.810;9.208;2023-03-18T09:24:16;98477.63;;;15.31;nan
7888;BME280;3989;48.810;9.208;2023-03-18T09:26:43;98470.13;;;15.39;nan
7888;BME280;3989;48.810;9.208;2023-03-18T09:29:09;98459.75;;;15.43;nan
7888;BME280;3989;48.810;9.208;2023-03-18T09:31:36;98480.72;;;15.65;nan
7888;BME280;3989;48.810;9.208;2023-03-18T09:34:03;98446.09;;;15.51;nan
7888;BME280;3989;48.810;9.208;2023-03-18T09:36:31;98425.63;;;15.50;nan
7888;BME280;3989;48.810;9.208;2023-03-18T09:38:57;98474.69;;;15.95;nan
7888;BME280;3989;48.810;9.208;2023-03-18T09:41:34;98466.28;;;16.09;nan
7888;BME280;3989;48.810;9.208;2023-03-18T09:44:10;98470.56;;;16.17;nan
7888;BME280;3989;48.810;9.208;2023-03-18T09:46:48;98458.25;;;16.27;nan
7888;BME280;3989;48.810;9.208;2023-03-18T09:52:20;98452.41;;;16.31;nan
7888;BME280;3989;48.810;9.208;2023-03-18T09:54:53;98410.38;;;16.11;nan
7888;BME280;3989;48.810;9.208;2023-03-18T09:57:25;98456.59;;;16.45;nan
7888;BME280;3989;48.810;9.208;2023-03-18T09:59:54;98462.41;;;16.66;nan
7888;BME280;3989;48.810;9.208;2023-03-18T10:02:27;98460.00;;;16.76;nan
7888;BME280;3989;48.810;9.208;2023-03-18T10:04:59;98453.00;;;16.87;nan
7888;BME280;3989;48.810;9.208;2023-03-18T10:07:33;98449.47;;;17.05;nan
7888;BME280;3989;48.810;9.208;2023-03-18T10:10:05;98401.53;;;16.77;nan
7888;BME280;3989;48.810;9.208;2023-03-18T10:12:35;98411.00;;;16.98;nan
7888;BME280;3989;48.810;9.208;2023-03-18T10:15:12;98423.53;;;17.22;nan
7888;BME280;3989;48.810;9.208;2023-03-18T10:17:43;98433.50;;;17.33;nan
7888;BME280;3989;48.810;9.208;2023-03-18T10:20:17;98431.06;;;17.43;nan
7888;BME280;3989;48.810;9.208;2023-03-18T10:23:03;98435.06;;;17.52;nan
7888;BME280;3989;48.810;9.208;2023-03-18T10:25:35;98396.56;;;17.22;nan
7888;BME280;3989;48.810;9.208;2023-03-18T10:28:39;98444.22;;;17.51;nan
7888;BME280;3989;48.810;9.208;2023-03-18T10:31:21;98436.94;;;17.52;nan
7888;BME280;3989;48.810;9.208;2023-03-18T10:33:56;98439.34;;;17.60;nan
7888;BME280;3989;48.810;9.208;2023-03-18T10:36:26;98432.78;;;17.56;nan
7888;BME280;3989;48.810;9.208;2023-03-18T10:38:56;98437.97;;;17.69;nan
7888;BME280;3989;48.810;9.208;2023-03-18T10:41:29;98433.38;;;17.81;nan
7888;BME280;3989;48.810;9.208;2023-03-18T10:43:57;98394.22;;;17.67;nan
7888;BME280;3989;48.810;9.208;2023-03-18T10:46:27;98351.97;;;17.61;nan
7888;BME280;3989;48.810;9.208;2023-03-18T10:48:55;98438.56;;;18.17;nan
7888;BME280;3989;48.810;9.208;2023-03-18T10:51:29;98419.22;;;18.09;nan
7888;BME280;3989;48.810;9.208;2023-03-18T10:54:12;98381.78;;;17.89;nan
7888;BME280;3989;48.810;9.208;2023-03-18T10:56:43;98374.47;;;17.78;nan
7888;BME280;3989;48.810;9.208;2023-03-18T10:59:12;98415.78;;;18.13;nan
7888;BME280;3989;48.810;9.208;2023-03-18T11:01:41;98395.84;;;17.91;nan
7888;BME280;3989;48.810;9.208;2023-03-18T11:04:12;98372.44;;;17.50;nan
7888;BME280;3989;48.810;9.208;2023-03-18T11:06:43;98411.22;;;17.79;nan
7888;BME280;3989;48.810;9.208;2023-03-18T11:09:15;98395.34;;;17.71;nan
7888;BME280;3989;48.810;9.208;2023-03-18T11:11:43;98416.72;;;17.84;nan
7888;BME280;3989;48.810;9.208;2023-03-18T11:14:13;98386.47;;;17.70;nan
7888;BME280;3989;48.810;9.208;2023-03-18T11:16:45;98340.91;;;17.51;nan
7888;BME280;3989;48.810;9.208;2023-03-18T11:19:27;98385.88;;;17.92;nan
7888;BME280;3989;48.810;9.208;2023-03-18T11:22:02;98397.13;;;18.12;nan
7888;BME280;3989;48.810;9.208;2023-03-18T11:24:30;98374.84;;;17.81;nan
7888;BME280;3989;48.810;9.208;2023-03-18T11:27:33;98389.16;;;18.05;nan
7888;BME280;3989;48.810;9.208;2023-03-18T11:30:03;98313.84;;;17.57;nan
7888;BME280;3989;48.810;9.208;2023-03-18T11:32:33;98394.88;;;18.20;nan
7888;BME280;3989;48.810;9.208;2023-03-18T11:35:03;98381.50;;;18.25;nan
7888;BME280;3989;48.810;9.208;2023-03-18T11:37:32;98372.59;;;18.25;nan
7888;BME280;3989;48.810;9.208;2023-03-18T11:40:15;98381.81;;;18.41;nan
7888;BME280;3989;48.810;9.208;2023-03-18T11:42:43;98379.94;;;18.41;nan
7888;BME280;3989;48.810;9.208;2023-03-18T11:45:25;98386.50;;;18.45;nan
7888;BME280;3989;48.810;9.208;2023-03-18T11:47:54;98378.22;;;18.35;nan
7888;BME280;3989;48.810;9.208;2023-03-18T11:50:23;98376.22;;;18.30;nan
7888;BME280;3989;48.810;9.208;2023-03-18T11:52:57;98364.34;;;18.31;nan
7888;BME280;3989;48.810;9.208;2023-03-18T11:55:33;98365.13;;;18.44;nan
7888;BME280;3989;48.810;9.208;2023-03-18T11:58:25;98364.06;;;18.56;nan
7888;BME280;3989;48.810;9.208;2023-03-18T12:01:02;98352.22;;;18.57;nan
7888;BME280;3989;48.810;9.208;2023-03-18T12:03:53;98359.91;;;18.77;nan
7888;BME280;3989;48.810;9.208;2023-03-18T12:06:25;98349.16;;;18.82;nan
7888;BME280;3989;48.810;9.208;2023-03-18T12:08:59;98357.06;;;18.83;nan
7888;BME280;3989;48.810;9.208;2023-03-18T12:11:53;98349.16;;;18.82;nan
7888;BME280;3989;48.810;9.208;2023-03-18T12:14:30;98359.00;;;18.88;nan
7888;BME280;3989;48.810;9.208;2023-03-18T12:17:10;98352.28;;;18.91;nan
7888;BME280;3989;48.810;9.208;2023-03-18T12:20:01;98353.56;;;19.00;nan
7888;BME280;3989;48.810;9.208;2023-03-18T12:22:41;98349.63;;;19.07;nan
7888;BME280;3989;48.810;9.208;2023-03-18T12:25:29;98347.38;;;19.16;nan
7888;BME280;3989;48.810;9.208;2023-03-18T12:28:05;98337.66;;;19.20;nan
7888;BME280;3989;48.810;9.208;2023-03-18T12:30:54;98337.13;;;19.34;nan
7888;BME280;3989;48.810;9.208;2023-03-18T12:33:38;98329.44;;;19.43;nan
7888;BME280;3989;48.810;9.208;2023-03-18T12:36:16;98328.72;;;19.48;nan
7888;BME280;3989;48.810;9.208;2023-03-18T12:39:03;98305.66;;;19.45;nan
7888;BME280;3989;48.810;9.208;2023-03-18T12:41:44;98286.53;;;19.35;nan
7888;BME280;3989;48.810;9.208;2023-03-18T12:44:27;98294.66;;;19.52;nan
7888;BME280;3989;48.810;9.208;2023-03-18T12:47:01;98299.22;;;19.68;nan
7888;BME280;3989;48.810;9.208;2023-03-18T12:49:33;98259.28;;;19.58;nan
7888;BME280;3989;48.810;9.208;2023-03-18T12:52:05;98305.59;;;19.95;nan
7888;BME280;3989;48.810;9.208;2023-03-18T12:54:38;98313.19;;;19.98;nan
7888;BME280;3989;48.810;9.208;2023-03-18T12:57:10;98305.63;;;20.00;nan
7888;BME280;3989;48.810;9.208;2023-03-18T12:59:43;98301.94;;;20.06;nan
7888;BME280;3989;48.810;9.208;2023-03-18T13:02:38;98309.63;;;20.14;nan
7888;BME280;3989;48.810;9.208;2023-03-18T13:05:17;98293.56;;;20.08;nan
7888;BME280;3989;48.810;9.208;2023-03-18T13:07:50;98299.63;;;20.15;nan
7888;BME280;3989;48.810;9.208;2023-03-18T13:10:19;98284.28;;;20.04;nan
7888;BME280;3989;48.810;9.208;2023-03-18T13:12:50;98295.53;;;20.12;nan
7888;BME280;3989;48.810;9.208;2023-03-18T13:15:26;98296.81;;;20.10;nan
7888;BME280;3989;48.810;9.208;2023-03-18T13:17:56;98303.97;;;20.16;nan
7888;BME280;3989;48.810;9.208;2023-03-18T13:20:28;98220.84;;;19.78;nan
7888;BME280;3989;48.810;9.208;2023-03-18T13:23:11;98295.88;;;20.37;nan
7888;BME280;3989;48.810;9.208;2023-03-18T13:25:49;98289.63;;;20.37;nan
7888;BME280;3989;48.810;9.208;2023-03-18T13:28:43;98270.69;;;20.42;nan
7888;BME280;3989;48.810;9.208;2023-03-18T13:31:24;98253.53;;;20.31;nan
7888;BME280;3989;48.810;9.208;2023-03-18T13:34:05;98293.06;;;20.54;nan
7888;BME280;3989;48.810;9.208;2023-03-18T13:37:06;98283.44;;;20.41;nan
7888;BME280;3989;48.810;9.208;2023-03-18T13:39:46;98300.50;;;20.42;nan
7888;BME280;3989;48.810;9.208;2023-03-18T13:42:20;98299.00;;;20.29;nan
7888;BME280;3989;48.810;9.208;2023-03-18T13:44:55;98297.22;;;20.18;nan
7888;BME280;3989;48.810;9.208;2023-03-18T13:47:28;98207.44;;;19.66;nan
7888;BME280;3989;48.810;9.208;2023-03-18T13:50:00;98293.91;;;20.33;nan
7888;BME280;3989;48.810;9.208;2023-03-18T13:52:33;98289.44;;;20.43;nan
7888;BME280;3989;48.810;9.208;2023-03-18T13:55:06;98221.28;;;20.13;nan
7888;BME280;3989;48.810;9.208;2023-03-18T13:57:46;98279.94;;;20.68;nan
7888;BME280;3989;48.810;9.208;2023-03-18T14:00:35;98283.56;;;20.78;nan
7888;BME280;3989;48.810;9.208;2023-03-18T14:03:26;98243.47;;;20.80;nan
7888;BME280;3989;48.810;9.208;2023-03-18T14:06:20;98283.16;;;21.18;nan
7888;BME280;3989;48.810;9.208;2023-03-18T14:08:48;98258.72;;;21.18;nan
7888;BME280;3989;48.810;9.208;2023-03-18T14:11:40;98278.59;;;21.61;nan